createdAt,value
2022-12-11T00:02:29.003Z,42.13
2022-12-11T00:04:56.449Z,49.30
2022-12-11T00:07:23.804Z,55.30
2022-12-11T00:09:53.132Z,62.43
2022-12-11T00:12:20.407Z,47.77
2022-12-11T00:14:47.667Z,53.07
2022-12-11T00:17:14.880Z,53.00
2022-12-11T00:19:42.108Z,52.63
2022-12-11T00:22:09.421Z,56.33
2022-12-11T00:24:36.806Z,56.87
2022-12-11T00:27:04.247Z,65.90
2022-12-11T00:29:31.707Z,56.73
2022-12-11T00:31:58.913Z,53.90
2022-12-11T00:34:26.417Z,55.63
2022-12-11T00:36:53.910Z,58.40
2022-12-11T00:39:21.190Z,61.77
2022-12-11T00:41:48.481Z,61.93
2022-12-11T00:44:15.722Z,56.80
2022-12-11T00:46:42.954Z,51.77
2022-12-11T00:49:10.153Z,64.23
2022-12-11T00:51:37.316Z,49.33
2022-12-11T00:54:04.691Z,71.13
2022-12-11T00:56:32.042Z,63.13
2022-12-11T00:59:00.366Z,69.00
2022-12-11T01:01:27.685Z,64.47
2022-12-11T01:03:55.045Z,62.47
2022-12-11T01:06:25.069Z,62.33
2022-12-11T01:09:11.888Z,72.90
2022-12-11T01:11:39.907Z,60.97
2022-12-11T01:14:07.129Z,66.00
2022-12-11T01:16:34.550Z,58.93
2022-12-11T01:19:01.923Z,69.70
2022-12-11T01:21:29.220Z,59.67
2022-12-11T01:23:56.629Z,60.03
2022-12-11T01:26:23.836Z,58.07
2022-12-11T01:28:51.694Z,53.43
2022-12-11T01:31:20.864Z,50.57
2022-12-11T01:33:48.387Z,48.17
2022-12-11T01:36:18.444Z,46.83
2022-12-11T01:38:46.924Z,53.00
2022-12-11T01:41:14.677Z,49.90
2022-12-11T01:44:04.455Z,48.53
2022-12-11T01:46:33.807Z,47.10
2022-12-11T01:49:04.435Z,51.50
2022-12-11T01:51:34.728Z,50.07
2022-12-11T01:54:11.305Z,48.07
2022-12-11T01:56:42.071Z,46.77
2022-12-11T01:59:10.733Z,44.73
2022-12-11T02:01:42.712Z,46.63
2022-12-11T02:04:11.210Z,49.07
2022-12-11T02:06:44.642Z,50.40
2022-12-11T02:09:39.335Z,53.80
2022-12-11T02:12:18.595Z,45.60
2022-12-11T02:14:58.161Z,49.83
2022-12-11T02:17:28.433Z,50.10
2022-12-11T02:20:14.268Z,53.80
2022-12-11T02:22:59.543Z,55.20
2022-12-11T02:25:49.142Z,54.07
2022-12-11T02:28:38.586Z,52.83
2022-12-11T02:31:24.923Z,48.80
2022-12-11T02:33:59.470Z,57.17
2022-12-11T02:36:31.378Z,57.90
2022-12-11T02:39:00.897Z,56.43
2022-12-11T02:41:29.653Z,64.23
2022-12-11T02:43:58.507Z,54.70
2022-12-11T02:46:27.362Z,58.33
2022-12-11T02:48:56.989Z,55.07
2022-12-11T02:51:31.123Z,57.17
2022-12-11T02:53:59.721Z,47.00
2022-12-11T02:56:36.942Z,59.33
2022-12-11T02:59:11.192Z,49.97
2022-12-11T03:01:38.731Z,48.07
2022-12-11T03:04:06.113Z,47.13
2022-12-11T03:06:37.495Z,45.17
2022-12-11T03:09:05.809Z,56.43
2022-12-11T03:11:33.086Z,51.70
2022-12-11T03:14:02.824Z,53.73
2022-12-11T03:16:38.688Z,52.50
2022-12-11T03:19:33.728Z,46.70
2022-12-11T03:22:18.024Z,46.00
2022-12-11T03:25:01.160Z,44.67
2022-12-11T03:27:36.935Z,44.57
2022-12-11T03:30:07.271Z,53.60
2022-12-11T03:32:48.838Z,48.97
2022-12-11T03:35:34.577Z,46.87
2022-12-11T03:38:06.286Z,48.37
2022-12-11T03:40:36.005Z,51.33
2022-12-11T03:43:05.634Z,54.40
2022-12-11T03:45:34.817Z,47.10
2022-12-11T03:48:03.200Z,47.47
2022-12-11T03:50:32.424Z,38.57
2022-12-11T03:53:01.810Z,44.60
2022-12-11T03:55:30.303Z,44.50
2022-12-11T03:57:57.677Z,43.80
2022-12-11T04:00:25.043Z,41.37
2022-12-11T04:03:13.658Z,43.20
2022-12-11T04:05:44.382Z,38.87
2022-12-11T04:08:11.802Z,40.80
2022-12-11T04:10:39.657Z,41.27
2022-12-11T04:13:08.103Z,37.53
2022-12-11T04:15:35.934Z,38.57
2022-12-11T04:18:42.338Z,43.07
2022-12-11T04:21:27.923Z,39.93
2022-12-11T04:24:13.921Z,36.63
2022-12-11T04:26:45.456Z,39.30
2022-12-11T04:29:13.831Z,30.50
2022-12-11T04:31:41.117Z,34.43
2022-12-11T04:34:08.380Z,30.43
2022-12-11T04:36:36.027Z,29.80
2022-12-11T04:39:05.619Z,31.53
2022-12-11T04:41:33.556Z,31.53
2022-12-11T04:44:00.956Z,28.07
2022-12-11T04:46:28.541Z,26.03
2022-12-11T04:48:57.893Z,26.60
2022-12-11T04:51:25.924Z,23.83
2022-12-11T04:53:53.234Z,23.93
2022-12-11T04:56:21.116Z,29.50
2022-12-11T04:58:48.777Z,26.93
2022-12-11T05:01:22.163Z,28.27
2022-12-11T05:03:49.719Z,25.00
2022-12-11T05:06:17.411Z,24.57
2022-12-11T05:08:45.479Z,25.27
2022-12-11T05:11:15.826Z,25.60
2022-12-11T05:13:44.772Z,27.13
2022-12-11T05:16:14.976Z,27.77
2022-12-11T05:18:42.467Z,23.20
2022-12-11T05:21:12.966Z,28.43
2022-12-11T05:23:40.974Z,26.83
2022-12-11T05:26:12.937Z,29.23
2022-12-11T05:28:40.462Z,25.53
2022-12-11T05:31:13.508Z,27.20
2022-12-11T05:33:41.551Z,27.77
2022-12-11T05:36:09.476Z,24.00
2022-12-11T05:38:36.695Z,25.47
2022-12-11T05:41:07.679Z,27.23
2022-12-11T05:43:36.771Z,27.13
2022-12-11T05:46:14.247Z,25.27
2022-12-11T05:48:44.017Z,29.23
2022-12-11T05:51:12.189Z,28.23
2022-12-11T05:53:40.568Z,26.50
2022-12-11T05:56:19.125Z,26.77
2022-12-11T05:58:47.656Z,26.47
2022-12-11T06:01:24.770Z,30.90
2022-12-11T06:03:53.375Z,26.77
2022-12-11T06:06:20.726Z,29.87
2022-12-11T06:08:53.935Z,27.60
2022-12-11T06:11:24.176Z,24.13
2022-12-11T06:13:52.482Z,28.93
2022-12-11T06:16:20.714Z,30.07
2022-12-11T06:18:48.460Z,32.60
2022-12-11T06:21:21.109Z,23.77
2022-12-11T06:23:50.033Z,28.17
2022-12-11T06:26:18.999Z,28.83
2022-12-11T06:28:46.727Z,29.87
2022-12-11T06:31:14.530Z,29.00
2022-12-11T06:33:43.329Z,22.70
2022-12-11T06:36:19.275Z,28.13
2022-12-11T06:38:47.674Z,28.33
2022-12-11T06:41:15.278Z,28.53
2022-12-11T06:43:43.157Z,29.77
2022-12-11T06:46:15.757Z,27.23
2022-12-11T06:48:43.646Z,28.60
2022-12-11T06:51:17.027Z,29.93
2022-12-11T06:53:45.066Z,29.87
2022-12-11T06:56:14.696Z,28.63
2022-12-11T06:58:43.291Z,31.73
2022-12-11T07:01:28.804Z,26.10
2022-12-11T07:03:58.561Z,27.83
2022-12-11T07:06:27.273Z,28.40
2022-12-11T07:08:54.983Z,24.30
2022-12-11T07:11:22.507Z,32.83
2022-12-11T07:13:49.871Z,32.63
2022-12-11T07:16:17.822Z,28.17
2022-12-11T07:18:49.623Z,29.20
2022-12-11T07:21:17.733Z,28.37
2022-12-11T07:23:45.116Z,27.57
2022-12-11T07:26:17.349Z,32.93
2022-12-11T07:28:44.996Z,26.83
2022-12-11T07:31:15.738Z,34.67
2022-12-11T07:33:43.599Z,28.73
2022-12-11T07:36:12.869Z,30.50
2022-12-11T07:38:40.327Z,27.53
2022-12-11T07:41:10.895Z,32.20
2022-12-11T07:43:38.325Z,26.90
2022-12-11T07:46:08.076Z,29.70
2022-12-11T07:48:38.184Z,23.00
2022-12-11T07:51:17.547Z,24.30
2022-12-11T07:53:47.083Z,27.80
2022-12-11T07:56:15.911Z,26.63
2022-12-11T07:58:43.349Z,30.57
2022-12-11T08:01:19.080Z,24.57
2022-12-11T08:03:48.028Z,27.40
2022-12-11T08:06:15.243Z,21.90
2022-12-11T08:08:43.155Z,22.33
2022-12-11T08:11:12.939Z,30.17
2022-12-11T08:13:42.573Z,28.80
2022-12-11T08:16:13.164Z,28.93
2022-12-11T08:18:42.199Z,29.93
2022-12-11T08:21:21.380Z,30.63
2022-12-11T08:23:49.466Z,32.40
2022-12-11T08:26:23.262Z,29.33
2022-12-11T08:28:50.626Z,25.20
2022-12-11T08:31:18.361Z,28.40
2022-12-11T08:33:46.596Z,30.03
2022-12-11T08:36:16.160Z,30.87
2022-12-11T08:38:44.204Z,29.37
2022-12-11T08:41:13.982Z,30.60
2022-12-11T08:43:41.696Z,24.57
2022-12-11T08:46:10.015Z,28.40
2022-12-11T08:48:39.351Z,24.93
2022-12-11T08:51:09.317Z,26.33
2022-12-11T08:53:36.815Z,22.80
2022-12-11T08:56:12.954Z,28.23
2022-12-11T08:58:40.447Z,32.40
2022-12-11T09:01:12.768Z,26.93
2022-12-11T09:03:41.028Z,27.30
2022-12-11T09:06:10.816Z,28.73
2022-12-11T09:08:38.414Z,25.93
2022-12-11T09:11:15.077Z,24.97
2022-12-11T09:13:43.414Z,32.03
2022-12-11T09:16:16.812Z,30.57
2022-12-11T09:18:46.903Z,32.53
2022-12-11T09:21:17.041Z,27.47
2022-12-11T09:23:44.776Z,31.10
2022-12-11T09:26:15.544Z,27.10
2022-12-11T09:28:46.593Z,27.53
2022-12-11T09:31:20.695Z,27.13
2022-12-11T09:33:47.968Z,30.60
2022-12-11T09:36:15.633Z,26.47
2022-12-11T09:38:45.862Z,35.37
2022-12-11T09:41:51.655Z,30.30
2022-12-11T09:44:38.321Z,25.77
2022-12-11T09:47:35.391Z,27.90
2022-12-11T09:50:25.478Z,29.43
2022-12-11T09:53:12.823Z,29.20
2022-12-11T09:56:17.781Z,25.13
2022-12-11T09:59:09.780Z,27.27
2022-12-11T10:02:20.316Z,27.23
2022-12-11T10:05:19.792Z,30.80
2022-12-11T10:08:00.761Z,28.80
2022-12-11T10:10:41.437Z,24.93
2022-12-11T10:13:25.878Z,27.83
2022-12-11T10:16:03.861Z,31.40
2022-12-11T10:18:32.548Z,31.50
2022-12-11T10:21:02.435Z,29.93
2022-12-11T10:23:36.121Z,33.73
2022-12-11T10:26:17.739Z,29.47
2022-12-11T10:28:45.093Z,31.60
2022-12-11T10:31:24.971Z,30.73
2022-12-11T10:34:00.477Z,30.60
2022-12-11T10:36:37.234Z,31.83
2022-12-11T10:39:15.672Z,30.00
2022-12-11T10:41:45.939Z,32.73
2022-12-11T10:44:19.070Z,30.73
2022-12-11T10:46:48.173Z,30.70
2022-12-11T10:49:25.728Z,31.87
2022-12-11T10:51:54.954Z,31.50
2022-12-11T10:54:38.255Z,25.80
2022-12-11T10:57:08.172Z,29.17
2022-12-11T10:59:47.746Z,30.77
2022-12-11T11:02:27.460Z,28.67
2022-12-11T11:04:56.930Z,38.80
2022-12-11T11:07:26.273Z,36.50
2022-12-11T11:10:11.711Z,41.90
2022-12-11T11:12:42.644Z,38.80
2022-12-11T11:15:15.712Z,43.03
2022-12-11T11:17:55.784Z,42.63
2022-12-11T11:20:29.402Z,59.13
2022-12-11T11:23:02.909Z,49.27
2022-12-11T11:25:32.784Z,53.33
2022-12-11T11:28:06.179Z,52.77
2022-12-11T11:30:41.836Z,57.30
2022-12-11T11:33:21.035Z,49.57
2022-12-11T11:35:52.761Z,58.73
2022-12-11T11:38:40.346Z,58.97
2022-12-11T11:41:15.536Z,53.10
2022-12-11T11:43:50.632Z,45.20
2022-12-11T11:46:25.330Z,46.13
2022-12-11T11:49:29.454Z,46.97
2022-12-11T11:52:17.908Z,48.57
2022-12-11T11:55:00.843Z,47.07
2022-12-11T11:57:46.024Z,44.63
2022-12-11T12:00:28.847Z,43.37
2022-12-11T12:03:14.081Z,45.27
2022-12-11T12:06:08.825Z,40.17
2022-12-11T12:08:55.332Z,41.10
2022-12-11T12:11:47.414Z,37.87
2022-12-11T12:14:51.531Z,41.13
2022-12-11T12:17:31.592Z,33.93
2022-12-11T12:20:16.269Z,40.23
2022-12-11T12:22:59.915Z,35.33
2022-12-11T12:25:49.866Z,33.30
2022-12-11T12:28:39.709Z,36.77
2022-12-11T12:31:34.999Z,38.80
2022-12-11T12:34:19.811Z,32.53
2022-12-11T12:37:09.022Z,37.30
2022-12-11T12:40:11.539Z,41.33
2022-12-11T12:43:16.413Z,38.73
2022-12-11T12:45:46.818Z,33.33
2022-12-11T12:48:14.456Z,42.37
2022-12-11T12:50:49.366Z,36.17
2022-12-11T12:53:23.986Z,40.53
2022-12-11T12:55:53.169Z,38.27
2022-12-11T12:58:31.399Z,32.23
2022-12-11T13:01:24.217Z,31.33
2022-12-11T13:04:03.164Z,35.80
2022-12-11T13:06:39.337Z,36.83
2022-12-11T13:09:25.592Z,40.43
2022-12-11T13:11:57.753Z,41.20
2022-12-11T13:14:32.384Z,38.00
2022-12-11T13:17:20.395Z,39.50
2022-12-11T13:19:49.696Z,37.57
2022-12-11T13:22:22.576Z,32.43
2022-12-11T13:24:59.696Z,33.67
2022-12-11T13:27:47.307Z,35.33
2022-12-11T13:30:14.583Z,37.20
2022-12-11T13:32:43.521Z,36.17
2022-12-11T13:35:17.515Z,37.57
2022-12-11T13:37:47.281Z,40.93
2022-12-11T13:40:19.008Z,38.03
2022-12-11T13:42:51.268Z,32.23
2022-12-11T13:45:22.958Z,36.10
2022-12-11T13:47:50.569Z,29.83
2022-12-11T13:50:24.237Z,26.13
2022-12-11T13:52:56.712Z,34.70
2022-12-11T13:55:27.405Z,29.87
2022-12-11T13:57:54.658Z,27.63
2022-12-11T14:00:28.114Z,30.87
2022-12-11T14:02:57.634Z,26.27
2022-12-11T14:05:25.106Z,31.27
2022-12-11T14:07:56.226Z,27.87
2022-12-11T14:10:28.817Z,31.00
2022-12-11T14:13:07.987Z,25.30
2022-12-11T14:15:36.599Z,24.40
2022-12-11T14:18:05.522Z,29.33
2022-12-11T14:20:34.451Z,27.50
2022-12-11T14:23:23.281Z,26.70
2022-12-11T14:26:24.399Z,21.80
2022-12-11T14:28:52.073Z,23.67
2022-12-11T14:31:40.959Z,26.60
2022-12-11T14:34:18.775Z,31.83
2022-12-11T14:36:48.148Z,27.87
2022-12-11T14:39:27.923Z,36.27
2022-12-11T14:42:00.218Z,35.63
2022-12-11T14:44:30.495Z,33.83
2022-12-11T14:47:15.412Z,31.37
2022-12-11T14:49:55.398Z,32.97
2022-12-11T14:52:29.207Z,30.47
2022-12-11T14:55:14.863Z,32.33
2022-12-11T14:57:45.558Z,32.80
2022-12-11T15:00:26.821Z,29.50
2022-12-11T15:03:03.848Z,30.90
2022-12-11T15:05:38.804Z,27.23
2022-12-11T15:08:11.009Z,21.50
2022-12-11T15:10:42.560Z,26.10
2022-12-11T15:13:10.372Z,20.80
2022-12-11T15:15:45.545Z,21.03
2022-12-11T15:18:31.059Z,27.17
2022-12-11T15:21:06.946Z,31.53
2022-12-11T15:23:54.855Z,27.00
2022-12-11T15:26:34.870Z,22.27
2022-12-11T15:29:05.419Z,24.73
2022-12-11T15:31:37.893Z,25.80
2022-12-11T15:34:22.811Z,30.17
2022-12-11T15:36:50.078Z,31.00
2022-12-11T15:39:17.419Z,30.07
2022-12-11T15:41:44.664Z,31.07
2022-12-11T15:44:20.039Z,31.97
2022-12-11T15:46:47.274Z,31.40
2022-12-11T15:49:15.153Z,30.93
2022-12-11T15:51:43.415Z,29.80
2022-12-11T15:54:10.968Z,28.07
2022-12-11T15:56:38.191Z,26.53
2022-12-11T15:59:06.991Z,32.67
2022-12-11T16:01:34.930Z,30.37
2022-12-11T16:04:05.170Z,31.13
2022-12-11T16:06:33.282Z,29.40
2022-12-11T16:09:01.201Z,30.77
2022-12-11T16:11:28.521Z,31.37
2022-12-11T16:13:55.711Z,30.57
2022-12-11T16:16:23.168Z,30.37
2022-12-11T16:18:51.351Z,31.53
2022-12-11T16:21:21.538Z,30.93
2022-12-11T16:23:49.388Z,31.77
2022-12-11T16:26:16.717Z,30.00
2022-12-11T16:28:44.127Z,29.77
2022-12-11T16:31:12.491Z,31.73
2022-12-11T16:33:40.451Z,32.23
2022-12-11T16:36:15.737Z,32.27
2022-12-11T16:38:53.495Z,30.43
2022-12-11T16:41:22.955Z,35.50
2022-12-11T16:43:50.677Z,37.57
2022-12-11T16:46:19.650Z,28.77
2022-12-11T16:48:47.079Z,31.57
2022-12-11T16:51:14.578Z,31.33
2022-12-11T16:53:42.083Z,35.13
2022-12-11T16:56:09.404Z,39.10
2022-12-11T16:58:36.787Z,35.00
2022-12-11T17:01:14.882Z,33.27
2022-12-11T17:03:43.319Z,28.97
2022-12-11T17:06:13.115Z,29.50
2022-12-11T17:08:42.680Z,31.83
2022-12-11T17:11:14.316Z,31.77
2022-12-11T17:13:41.911Z,32.03
2022-12-11T17:16:15.616Z,37.70
2022-12-11T17:18:43.316Z,34.30
2022-12-11T17:21:14.220Z,31.00
2022-12-11T17:23:50.318Z,37.80
2022-12-11T17:26:18.696Z,31.97
2022-12-11T17:28:46.303Z,30.47
2022-12-11T17:31:16.660Z,30.60
2022-12-11T17:33:45.638Z,30.27
2022-12-11T17:36:15.955Z,34.80
2022-12-11T17:38:43.300Z,38.63
2022-12-11T17:41:19.836Z,30.97
2022-12-11T17:43:49.612Z,29.37
2022-12-11T17:46:18.322Z,27.77
2022-12-11T17:48:45.633Z,34.07
2022-12-11T17:51:20.876Z,33.23
2022-12-11T17:53:48.349Z,34.30
2022-12-11T17:56:16.440Z,30.67
2022-12-11T17:58:43.946Z,29.40
2022-12-11T18:01:14.604Z,30.10
2022-12-11T18:03:42.495Z,32.50
2022-12-11T18:06:13.124Z,27.07
2022-12-11T18:08:41.463Z,32.53
2022-12-11T18:11:11.539Z,39.20
2022-12-11T18:13:39.458Z,35.30
2022-12-11T18:16:19.220Z,30.33
2022-12-11T18:18:48.120Z,28.23
2022-12-11T18:21:18.526Z,30.97
2022-12-11T18:23:51.968Z,32.00
2022-12-11T18:26:20.135Z,30.90
2022-12-11T18:28:48.611Z,32.50
2022-12-11T18:31:16.497Z,31.43
2022-12-11T18:33:45.141Z,32.57
2022-12-11T18:36:14.681Z,37.90
2022-12-11T18:38:43.074Z,29.67
2022-12-11T18:41:12.162Z,31.30
2022-12-11T18:43:41.335Z,34.50
2022-12-11T18:46:10.736Z,27.70
2022-12-11T18:48:38.868Z,33.43
2022-12-11T18:51:11.593Z,30.30
2022-12-11T18:53:39.437Z,33.90
2022-12-11T18:56:15.950Z,31.23
2022-12-11T18:58:43.598Z,29.03
2022-12-11T19:01:17.413Z,32.07
2022-12-11T19:03:44.828Z,35.00
2022-12-11T19:06:18.640Z,39.10
2022-12-11T19:08:46.894Z,33.60
2022-12-11T19:11:16.290Z,39.30
2022-12-11T19:13:44.289Z,34.07
2022-12-11T19:16:23.869Z,33.37
2022-12-11T19:18:51.675Z,31.37
2022-12-11T19:21:19.097Z,31.57
2022-12-11T19:23:46.756Z,34.60
2022-12-11T19:26:18.050Z,33.57
2022-12-11T19:28:45.986Z,37.83
2022-12-11T19:31:16.258Z,29.33
2022-12-11T19:33:44.287Z,29.57
2022-12-11T19:36:14.202Z,27.40
2022-12-11T19:38:43.296Z,29.37
2022-12-11T19:41:22.003Z,29.57
2022-12-11T19:43:50.310Z,31.17
2022-12-11T19:46:18.683Z,30.60
2022-12-11T19:48:48.401Z,24.37
2022-12-11T19:51:19.116Z,34.53
2022-12-11T19:53:47.777Z,26.03
2022-12-11T19:56:15.624Z,28.70
2022-12-11T19:58:43.457Z,29.40
2022-12-11T20:01:28.965Z,31.20
2022-12-11T20:03:59.587Z,30.97
2022-12-11T20:06:32.364Z,28.43
2022-12-11T20:09:00.620Z,32.57
2022-12-11T20:11:28.452Z,32.37
2022-12-11T20:13:56.241Z,29.57
2022-12-11T20:16:39.664Z,33.43
2022-12-11T20:19:11.507Z,32.63
2022-12-11T20:21:38.912Z,34.10
2022-12-11T20:24:06.550Z,28.57
2022-12-11T20:26:36.410Z,35.23
2022-12-11T20:29:08.214Z,27.33
2022-12-11T20:31:37.048Z,29.17
2022-12-11T20:34:05.387Z,29.17
2022-12-11T20:36:33.133Z,32.80
2022-12-11T20:39:00.569Z,31.20
2022-12-11T20:41:28.005Z,33.23
2022-12-11T20:43:55.544Z,31.63
2022-12-11T20:46:25.364Z,33.77
2022-12-11T20:48:55.736Z,30.63
2022-12-11T20:51:26.084Z,28.37
2022-12-11T20:54:01.942Z,30.05
2022-12-11T20:56:30.816Z,30.23
2022-12-11T20:58:59.777Z,27.93
2022-12-11T21:01:36.591Z,31.27
2022-12-11T21:04:08.599Z,31.80
2022-12-11T21:06:51.760Z,29.07
2022-12-11T21:09:19.221Z,29.80
2022-12-11T21:11:50.202Z,28.60
2022-12-11T21:14:29.908Z,28.00
2022-12-11T21:16:58.009Z,30.00
2022-12-11T21:19:25.608Z,30.13
2022-12-11T21:21:53.024Z,28.20
2022-12-11T21:24:28.935Z,27.33
2022-12-11T21:26:58.182Z,26.70
2022-12-11T21:29:27.136Z,27.77
2022-12-11T21:31:54.960Z,28.70
2022-12-11T21:34:25.546Z,31.17
2022-12-11T21:36:56.762Z,30.67
2022-12-11T21:39:25.615Z,29.73
2022-12-11T21:41:53.419Z,25.03
2022-12-11T21:47:09.346Z,27.23
2022-12-11T21:49:37.741Z,26.67
2022-12-11T21:52:05.413Z,29.67
2022-12-11T21:54:32.740Z,25.73
2022-12-11T21:57:00.027Z,29.50
2022-12-11T21:59:28.678Z,24.07
2022-12-11T22:01:56.123Z,26.63
2022-12-11T22:04:23.547Z,30.17
2022-12-11T22:06:50.808Z,26.33
2022-12-11T22:09:18.401Z,26.33
2022-12-11T22:11:46.815Z,25.87
2022-12-11T22:14:17.101Z,22.67
2022-12-11T22:16:44.423Z,30.40
2022-12-11T22:19:12.175Z,25.23
2022-12-11T22:21:39.950Z,31.07
2022-12-11T22:24:07.648Z,29.40
2022-12-11T22:26:35.108Z,25.87
2022-12-11T22:29:02.420Z,26.97
2022-12-11T22:31:29.789Z,29.50
2022-12-11T22:33:57.380Z,23.60
2022-12-11T22:36:27.232Z,30.00
2022-12-11T22:38:54.963Z,31.03
2022-12-11T22:41:30.410Z,26.93
2022-12-11T22:43:58.447Z,30.63
2022-12-11T22:46:29.308Z,29.30
2022-12-11T22:48:58.593Z,27.47
2022-12-11T22:51:26.100Z,29.23
2022-12-11T22:53:53.409Z,24.57
2022-12-11T22:56:20.798Z,25.10
2022-12-11T22:58:48.115Z,22.83
2022-12-11T23:01:19.249Z,22.57
2022-12-11T23:03:47.093Z,24.73
2022-12-11T23:06:17.335Z,26.60
2022-12-11T23:08:45.271Z,25.00
2022-12-11T23:11:18.405Z,22.40
2022-12-11T23:13:45.809Z,26.53
2022-12-11T23:16:13.753Z,26.27
2022-12-11T23:18:41.575Z,28.47
2022-12-11T23:21:10.176Z,27.87
2022-12-11T23:23:37.603Z,24.43
2022-12-11T23:26:07.426Z,26.43
2022-12-11T23:28:35.081Z,25.20
2022-12-11T23:31:02.888Z,26.20
2022-12-11T23:33:33.687Z,23.87
2022-12-11T23:36:01.247Z,24.67
2022-12-11T23:38:28.721Z,28.63
2022-12-11T23:40:56.178Z,24.97
2022-12-11T23:43:24.206Z,28.80
2022-12-11T23:45:52.409Z,31.70
2022-12-11T23:48:20.068Z,27.90
2022-12-11T23:50:48.275Z,34.20
2022-12-11T23:53:15.926Z,25.90
2022-12-11T23:55:44.750Z,25.70
2022-12-11T23:58:12.344Z,28.30
